Time;durP1;ratioP1;P1;durP2;ratioP2;P2;SDS_P1;SDS_P2;PMS_P1;PMS_P2;Temp;Humidity;BMP_temperature;BMP_pressure;BME280_temperature;BME280_humidity;BME280_pressure;Samples;Min_cycle;Max_cycle;Signal;HPM_P1;HPM_P2
2022/04/25 00:01:06;;;;;;;21.30;13.27;;;7.40;99.90;;;;;;5048364;28;20595;-50
2022/04/25 00:03:32;;;;;;;21.02;12.07;;;7.50;99.90;;;;;;5049035;28;20140;-51
2022/04/25 00:05:58;;;;;;;15.88;10.93;;;7.50;99.90;;;;;;5047418;28;20492;-48
2022/04/25 00:08:23;;;;;;;21.40;13.43;;;7.50;99.90;;;;;;5048641;28;20761;-49
2022/04/25 00:10:49;;;;;;;17.63;12.77;;;8.20;99.90;;;;;;5048313;28;20578;-49
2022/04/25 00:13:15;;;;;;;21.15;12.38;;;7.40;99.90;;;;;;5048315;28;20041;-47
2022/04/25 00:15:41;;;;;;;20.27;13.27;;;7.40;99.90;;;;;;5047715;28;20127;-49
2022/04/25 00:18:07;;;;;;;22.95;13.68;;;7.30;99.90;;;;;;5047702;28;20055;-49
2022/04/25 00:20:33;;;;;;;26.65;15.25;;;7.20;99.90;;;;;;5048229;28;20033;-48
2022/04/25 00:23:04;;;;;;;22.35;14.30;;;7.00;99.90;;;;;;5048415;28;20480;-38
2022/04/25 00:25:34;;;;;;;23.77;14.55;;;7.00;99.90;;;;;;5048240;28;20137;-39
2022/04/25 00:28:00;;;;;;;26.38;14.93;;;6.90;99.90;;;;;;5048673;28;20041;-38
2022/04/25 00:30:28;;;;;;;25.63;16.23;;;6.90;99.90;;;;;;5047821;28;20049;-38
2022/04/25 00:32:57;;;;;;;25.88;16.65;;;6.90;99.90;;;;;;5046206;28;20118;-48
2022/04/25 00:35:23;;;;;;;27.67;16.23;;;6.90;99.90;;;;;;5047605;28;20205;-48
2022/04/25 00:37:52;;;;;;;32.20;17.02;;;6.90;99.90;;;;;;5048284;28;20124;-51
2022/04/25 00:40:19;;;;;;;27.17;16.35;;;6.90;99.90;;;;;;5047667;28;20514;-47
2022/04/25 00:42:46;;;;;;;31.50;18.35;;;6.80;99.90;;;;;;5047908;28;20048;-49
2022/04/25 00:45:13;;;;;;;30.05;17.30;;;6.90;99.90;;;;;;5048087;28;20167;-50
2022/04/25 00:47:40;;;;;;;29.08;17.85;;;6.90;99.90;;;;;;5048155;28;20045;-48
2022/04/25 00:50:07;;;;;;;28.45;18.92;;;6.80;99.90;;;;;;5048011;28;20056;-48
2022/04/25 00:52:33;;;;;;;28.65;18.23;;;6.80;99.90;;;;;;5048316;28;20048;-48
2022/04/25 00:55:00;;;;;;;27.17;17.63;;;6.70;99.90;;;;;;5047983;28;20049;-51
2022/04/25 00:57:31;;;;;;;28.42;17.88;;;6.60;99.90;;;;;;5047909;28;20048;-38
2022/04/25 00:59:58;;;;;;;26.85;18.33;;;6.60;99.90;;;;;;5048313;28;20045;-39
2022/04/25 01:02:27;;;;;;;34.05;18.85;;;6.50;99.90;;;;;;5048074;28;20400;-38
2022/04/25 01:04:56;;;;;;;28.85;18.52;;;6.40;99.90;;;;;;5048284;28;20106;-39
2022/04/25 01:07:22;;;;;;;31.92;17.98;;;6.30;99.90;;;;;;5047592;28;20041;-48
2022/04/25 01:09:48;;;;;;;33.35;19.17;;;6.00;99.90;;;;;;5049793;28;20044;-49
2022/04/25 01:12:14;;;;;;;33.47;19.23;;;5.90;99.90;;;;;;5050469;28;20079;-50
2022/04/25 01:14:40;;;;;;;32.05;19.27;;;6.00;99.90;;;;;;5051662;28;20072;-47
2022/04/25 01:17:07;;;;;;;31.42;18.95;;;6.40;99.90;;;;;;5051659;28;20103;-48
2022/04/25 01:19:33;;;;;;;34.85;19.67;;;6.00;99.90;;;;;;5051264;28;20080;-51
2022/04/25 01:22:01;;;;;;;31.00;19.17;;;5.90;99.90;;;;;;5051414;28;20075;-51
2022/04/25 01:27:17;;;;;;;34.30;19.08;;;5.90;99.90;;;;;;5049928;28;20041;-50
2022/04/25 01:29:45;;;;;;;33.90;18.30;;;5.90;99.90;;;;;;5050675;28;20124;-51
2022/04/25 01:32:12;;;;;;;32.17;18.95;;;5.90;99.90;;;;;;5050704;28;20052;-48
2022/04/25 01:34:38;;;;;;;35.83;19.75;;;5.90;99.90;;;;;;5051396;28;20072;-51
2022/04/25 01:37:09;;;;;;;37.60;20.15;;;5.90;99.90;;;;;;5051532;28;20044;-50
2022/04/25 01:39:39;;;;;;;39.28;19.35;;;5.60;99.90;;;;;;5051299;28;20040;-48
2022/04/25 01:42:06;;;;;;;35.10;19.92;;;5.90;99.90;;;;;;5051321;28;20361;-50
2022/04/25 01:44:33;;;;;;;37.40;18.63;;;5.90;99.90;;;;;;5051246;28;20098;-38
2022/04/25 01:46:58;;;;;;;38.70;19.08;;;5.90;99.90;;;;;;5051361;28;20080;-51
2022/04/25 01:49:24;;;;;;;34.42;18.73;;;6.80;99.90;;;;;;5051273;28;20087;-51
2022/04/25 01:51:50;;;;;;;30.90;17.77;;;6.30;99.90;;;;;;5051362;28;20049;-48
2022/04/25 01:54:23;;;;;;;32.38;18.52;;;5.80;99.90;;;;;;5051238;28;20053;-48
2022/04/25 01:56:48;;;;;;;;;;;5.70;99.90;;;;;;5051742;28;20485;-49
2022/04/25 01:59:14;;;;;;;34.53;18.80;;;5.60;99.90;;;;;;5051397;28;19920;-48
2022/04/25 02:01:40;;;;;;;32.40;18.20;;;5.70;99.90;;;;;;5050984;28;20403;-47
2022/04/25 02:04:05;;;;;;;31.80;18.02;;;5.60;99.90;;;;;;5051460;28;20049;-49
2022/04/25 02:06:31;;;;;;;31.15;19.13;;;5.60;99.90;;;;;;5051231;28;20033;-50
2022/04/25 02:08:57;;;;;;;35.22;19.73;;;5.70;99.90;;;;;;5051291;28;20091;-50
2022/04/25 02:11:24;;;;;;;33.42;18.33;;;5.80;99.90;;;;;;5050904;28;20503;-47
2022/04/25 02:13:54;;;;;;;33.53;20.25;;;5.80;99.90;;;;;;5051184;28;20041;-47
2022/04/25 02:16:21;;;;;;;34.78;18.40;;;6.00;99.90;;;;;;5050431;28;20084;-47
2022/04/25 02:18:48;;;;;;;29.50;17.88;;;5.90;99.90;;;;;;5050766;28;20048;-47
2022/04/25 02:21:13;;;;;;;28.58;17.33;;;5.90;99.90;;;;;;5050185;28;20040;-47
2022/04/25 02:23:39;;;;;;;31.10;15.98;;;6.20;99.90;;;;;;5050429;28;20045;-49
2022/04/25 02:26:06;;;;;;;23.38;15.32;;;6.10;99.90;;;;;;5050801;28;20120;-47
2022/04/25 02:28:33;;;;;;;23.77;14.95;;;6.00;99.90;;;;;;5050417;28;20555;-49
2022/04/25 02:30:59;;;;;;;27.85;14.02;;;6.20;99.90;;;;;;5049982;28;20120;-46
2022/04/25 02:33:25;;;;;;;28.58;15.75;;;6.20;99.90;;;;;;5050161;28;20132;-47
2022/04/25 02:35:50;;;;;;;23.55;13.85;;;6.20;99.90;;;;;;5050272;28;20057;-48
2022/04/25 02:38:16;;;;;;;28.90;14.85;;;5.90;99.90;;;;;;5050282;28;20044;-47
2022/04/25 02:40:42;;;;;;;28.05;15.10;;;6.30;99.90;;;;;;5050005;28;20723;-47
2022/04/25 02:43:07;;;;;;;25.95;15.07;;;6.30;99.90;;;;;;5050165;28;20122;-47
2022/04/25 02:45:35;;;;;;;23.75;14.27;;;6.60;99.90;;;;;;5049942;28;20564;-47
2022/04/25 02:48:01;;;;;;;28.70;15.18;;;6.70;99.90;;;;;;5050069;28;20103;-47
2022/04/25 02:50:26;;;;;;;25.40;13.75;;;6.30;99.90;;;;;;5050149;28;20041;-47
2022/04/25 02:52:53;;;;;;;24.70;14.15;;;6.30;99.90;;;;;;5049851;28;20556;-50
2022/04/25 02:55:22;;;;;;;24.70;14.48;;;6.80;99.90;;;;;;5050068;28;20059;-48
2022/04/25 02:57:47;;;;;;;26.15;14.48;;;6.30;99.90;;;;;;5049587;28;20053;-50
2022/04/25 03:00:14;;;;;;;25.02;14.48;;;6.10;99.90;;;;;;5049671;28;20045;-47
2022/04/25 03:02:39;;;;;;;26.45;16.15;;;6.40;99.90;;;;;;5049669;28;20095;-50
2022/04/25 03:05:06;;;;;;;27.10;14.88;;;6.40;99.90;;;;;;5049925;28;20051;-47
2022/04/25 03:07:31;;;;;;;25.55;14.40;;;6.40;99.90;;;;;;5049728;28;20476;-51
2022/04/25 03:09:57;;;;;;;25.67;13.13;;;7.30;99.90;;;;;;5050083;28;20106;-47
2022/04/25 03:12:23;;;;;;;21.10;14.15;;;6.40;99.90;;;;;;5049911;28;20048;-48
2022/04/25 03:14:49;;;;;;;23.77;14.43;;;6.40;99.90;;;;;;5049690;28;20450;-50
2022/04/25 03:17:15;;;;;;;25.00;14.20;;;6.70;99.90;;;;;;5049808;28;20037;-47
2022/04/25 03:19:41;;;;;;;26.17;13.45;;;7.00;99.90;;;;;;5049782;28;20044;-49
2022/04/25 03:22:06;;;;;;;22.33;13.77;;;6.40;99.90;;;;;;5049831;28;20488;-46
2022/04/25 03:24:32;;;;;;;24.58;13.98;;;6.10;99.90;;;;;;5049714;28;20068;-48
2022/04/25 03:26:58;;;;;;;24.08;12.90;;;6.40;99.90;;;;;;5049804;28;20192;-49
2022/04/25 03:29:24;;;;;;;26.85;13.27;;;6.40;99.90;;;;;;5049284;28;20119;-47
2022/04/25 03:31:49;;;;;;;26.17;14.02;;;6.20;99.90;;;;;;5046098;28;20068;-46
2022/04/25 03:34:15;;;;;;;20.10;13.07;;;6.40;99.90;;;;;;5048909;28;20124;-51
2022/04/25 03:36:51;;;;;;;28.30;14.50;;;7.20;99.90;;;;;;5048623;28;20048;-47
2022/04/25 03:39:17;;;;;;;28.80;14.50;;;7.30;99.90;;;;;;5048773;28;20451;-47
2022/04/25 03:41:43;;;;;;;22.73;12.70;;;6.50;99.90;;;;;;5049390;28;20052;-48
2022/04/25 03:44:09;;;;;;;22.63;14.57;;;6.40;99.90;;;;;;5049667;28;20049;-47
2022/04/25 03:46:35;;;;;;;29.25;13.50;;;6.40;99.90;;;;;;5049156;28;20037;-51
2022/04/25 03:49:00;;;;;;;27.05;13.77;;;6.50;99.90;;;;;;5048684;28;20033;-47
2022/04/25 03:51:28;;;;;;;23.83;13.45;;;6.30;99.90;;;;;;5049435;28;20051;-51
2022/04/25 03:53:54;;;;;;;25.00;13.93;;;6.60;99.90;;;;;;5049245;28;20380;-50
2022/04/25 03:59:05;;;;;;;25.77;12.57;;;6.50;99.90;;;;;;5049232;28;20080;-48
2022/04/25 04:01:31;;;;;;;20.15;12.25;;;6.50;99.90;;;;;;5048964;28;20090;-48
2022/04/25 04:04:04;;;;;;;21.27;12.52;;;6.50;99.90;;;;;;5048472;28;20045;-50
2022/04/25 04:06:30;;;;;;;21.02;11.52;;;6.40;99.90;;;;;;5049062;28;20441;-53
2022/04/25 04:08:55;;;;;;;18.92;11.38;;;6.50;99.90;;;;;;5048519;28;20094;-47
2022/04/25 04:11:21;;;;;;;18.98;11.63;;;6.40;99.90;;;;;;5048778;28;20064;-47
2022/04/25 04:13:47;;;;;;;17.30;10.65;;;6.10;99.90;;;;;;5048317;28;20049;-49
2022/04/25 04:16:13;;;;;;;19.13;11.35;;;7.10;99.90;;;;;;5048490;28;20055;-47
2022/04/25 04:18:42;;;;;;;18.35;10.85;;;6.50;99.90;;;;;;5048428;28;20044;-48
2022/04/25 04:21:09;;;;;;;27.35;10.48;;;6.90;99.90;;;;;;5049049;28;20404;-50
2022/04/25 04:23:35;;;;;;;21.63;10.70;;;6.50;99.90;;;;;;5047306;28;20439;-48
2022/04/25 04:26:01;;;;;;;22.95;10.52;;;6.50;99.90;;;;;;5048710;28;20037;-47
2022/04/25 04:28:26;;;;;;;17.77;10.32;;;6.60;99.90;;;;;;5048575;28;20045;-48
2022/04/25 04:30:52;;;;;;;21.38;10.38;;;6.60;99.90;;;;;;5047651;28;20040;-48
2022/04/25 04:33:18;;;;;;;21.65;11.52;;;6.60;99.90;;;;;;5048078;28;20057;-47
2022/04/25 04:38:28;;;;;;;21.23;11.20;;;6.70;99.90;;;;;;5048386;28;20126;-46
2022/04/25 04:40:53;;;;;;;19.98;11.20;;;6.70;99.90;;;;;;5048089;28;20802;-47
2022/04/25 04:43:19;;;;;;;15.85;10.20;;;7.40;99.90;;;;;;5049195;28;20059;-47
2022/04/25 04:45:45;;;;;;;18.90;10.82;;;6.60;99.90;;;;;;5052684;28;20076;-48
2022/04/25 04:48:11;;;;;;;19.48;10.45;;;6.80;99.90;;;;;;5052218;28;20119;-47
2022/04/25 04:50:36;;;;;;;18.77;10.57;;;7.70;99.90;;;;;;5052793;28;20080;-47
2022/04/25 04:53:02;;;;;;;18.20;10.00;;;6.80;99.90;;;;;;5052169;28;20114;-47
2022/04/25 04:55:29;;;;;;;15.63;10.25;;;6.80;99.90;;;;;;5051925;28;20052;-48
2022/04/25 04:57:58;;;;;;;16.85;9.18;;;7.30;99.90;;;;;;5052212;28;20048;-47
2022/04/25 05:00:24;;;;;;;17.15;10.73;;;6.70;99.90;;;;;;5052200;28;20041;-48
2022/04/25 05:02:49;;;;;;;19.40;9.77;;;7.50;99.90;;;;;;5052144;28;20120;-47
2022/04/25 05:05:15;;;;;;;18.35;10.68;;;7.00;99.90;;;;;;5051927;28;20551;-47
2022/04/25 05:07:41;;;;;;;18.85;11.10;;;7.00;99.90;;;;;;5051760;28;20491;-47
2022/04/25 05:10:08;;;;;;;15.65;10.77;;;7.00;99.90;;;;;;5051717;28;20261;-47
2022/04/25 05:12:50;;;;;;;16.15;10.73;;;7.00;99.90;;;;;;5052024;28;20130;-47
2022/04/25 05:15:17;;;;;;;20.40;10.98;;;7.00;99.90;;;;;;5052188;28;20044;-48
2022/04/25 05:17:43;;;;;;;16.27;11.40;;;6.80;99.90;;;;;;5052130;28;20044;-49
2022/04/25 05:20:12;;;;;;;17.45;11.05;;;7.20;99.90;;;;;;5051722;28;20036;-47
2022/04/25 05:22:39;;;;;;;15.43;10.85;;;7.00;99.90;;;;;;5051619;28;20045;-47
2022/04/25 05:25:05;;;;;;;19.92;10.85;;;7.80;99.90;;;;;;5051514;28;20037;-46
2022/04/25 05:27:32;;;;;;;18.38;11.10;;;7.10;99.90;;;;;;5051964;28;20048;-47
2022/04/25 05:29:57;;;;;;;25.13;11.65;;;7.10;99.90;;;;;;5051436;28;20049;-47
2022/04/25 05:32:23;;;;;;;17.02;11.27;;;7.20;99.90;;;;;;5050345;28;20067;-47
2022/04/25 05:34:49;;;;;;;20.95;11.60;;;7.10;99.90;;;;;;5051528;28;20858;-49
2022/04/25 05:37:15;;;;;;;17.45;12.00;;;7.20;99.90;;;;;;5051378;28;20048;-47
2022/04/25 05:39:40;;;;;;;17.50;12.32;;;7.30;99.90;;;;;;5051536;28;20045;-47
2022/04/25 05:42:07;;;;;;;16.27;12.00;;;7.40;99.90;;;;;;5050964;28;20041;-47
2022/04/25 05:44:33;;;;;;;15.30;11.13;;;7.50;99.90;;;;;;5050836;28;20521;-47
2022/04/25 05:46:59;;;;;;;20.85;11.77;;;7.50;99.90;;;;;;5050925;28;20052;-49
2022/04/25 05:52:10;;;;;;;15.82;10.07;;;7.60;99.90;;;;;;5051445;28;20049;-47
2022/04/25 05:54:36;;;;;;;16.38;11.00;;;7.90;99.90;;;;;;5050859;28;20343;-47
2022/04/25 05:57:02;;;;;;;17.08;10.75;;;7.70;99.90;;;;;;5050245;28;20124;-49
2022/04/25 05:59:29;;;;;;;17.30;9.90;;;7.80;99.90;;;;;;5051305;28;20123;-47
2022/04/25 06:01:56;;;;;;;16.10;9.20;;;7.80;99.90;;;;;;5050939;28;20437;-47
2022/04/25 06:04:22;;;;;;;15.02;9.63;;;7.90;99.90;;;;;;5049830;28;20044;-48
2022/04/25 06:06:47;;;;;;;15.98;9.45;;;7.80;99.90;;;;;;5051419;28;20139;-48
2022/04/25 06:09:15;;;;;;;16.65;9.90;;;7.70;99.90;;;;;;5050702;28;20052;-47
2022/04/25 06:11:42;;;;;;;21.17;9.30;;;7.80;99.90;;;;;;5049413;28;20449;-47
2022/04/25 06:14:07;;;;;;;16.25;9.00;;;7.80;99.90;;;;;;5050721;28;20048;-49
2022/04/25 06:16:33;;;;;;;13.43;8.98;;;7.80;99.90;;;;;;5050836;28;20520;-47
2022/04/25 06:18:58;;;;;;;17.55;8.95;;;7.90;99.90;;;;;;5050564;28;20503;-48
2022/04/25 06:21:24;;;;;;;18.30;8.50;;;7.70;99.90;;;;;;5050290;28;20041;-46
2022/04/25 06:23:50;;;;;;;12.25;7.72;;;7.50;99.90;;;;;;5050364;28;20041;-47
2022/04/25 06:26:15;;;;;;;12.25;8.20;;;7.70;99.90;;;;;;5049516;28;20158;-50
2022/04/25 06:28:41;;;;;;;12.77;8.90;;;8.60;99.90;;;;;;5050656;28;20595;-47
2022/04/25 06:31:07;;;;;;;14.18;7.95;;;7.40;99.90;;;;;;5050390;28;20154;-47
2022/04/25 06:33:33;;;;;;;11.93;7.35;;;7.30;99.90;;;;;;5050035;28;20063;-48
2022/04/25 06:35:59;;;;;;;14.02;8.02;;;7.70;99.90;;;;;;5050492;28;20167;-47
2022/04/25 06:38:24;;;;;;;14.55;8.10;;;7.60;99.90;;;;;;5050406;28;20138;-49
2022/04/25 06:40:50;;;;;;;12.07;7.40;;;8.00;99.90;;;;;;5049928;28;20080;-47
2022/04/25 06:43:16;;;;;;;16.15;8.00;;;7.40;99.90;;;;;;5049678;28;20055;-47
2022/04/25 06:45:42;;;;;;;10.52;7.40;;;7.30;99.90;;;;;;5050029;28;20049;-47
2022/04/25 06:48:08;;;;;;;16.50;8.00;;;7.40;99.90;;;;;;5049902;28;20052;-46
2022/04/25 06:50:34;;;;;;;12.10;6.10;;;7.70;99.90;;;;;;5050069;28;20037;-48
2022/04/25 06:52:59;;;;;;;12.07;7.00;;;7.50;99.90;;;;;;5050038;28;20037;-48
2022/04/25 06:55:25;;;;;;;13.57;8.43;;;8.20;99.90;;;;;;5049816;28;20152;-47
2022/04/25 06:57:53;;;;;;;11.65;7.45;;;7.40;99.90;;;;;;5050276;28;20499;-47
2022/04/25 07:00:20;;;;;;;23.33;8.70;;;7.40;99.90;;;;;;5048409;28;20399;-47
2022/04/25 07:02:46;;;;;;;15.55;8.50;;;7.90;99.90;;;;;;5050379;28;20049;-48
2022/04/25 07:05:12;;;;;;;16.23;9.43;;;7.50;99.90;;;;;;5050197;28;20045;-47
2022/04/25 07:07:38;;;;;;;17.92;9.95;;;7.10;99.90;;;;;;5049225;28;20468;-47
2022/04/25 07:10:05;;;;;;;15.38;8.95;;;7.00;99.90;;;;;;5049960;28;20045;-47
2022/04/25 07:12:31;;;;;;;17.13;10.85;;;7.00;99.90;;;;;;5050031;28;20465;-50
2022/04/25 07:14:57;;;;;;;16.50;10.98;;;6.70;99.90;;;;;;5049907;28;20183;-48
2022/04/25 07:17:23;;;;;;;21.35;11.02;;;7.40;99.90;;;;;;5049163;28;20164;-47
2022/04/25 07:19:48;;;;;;;15.15;10.25;;;6.90;99.90;;;;;;5049736;28;20044;-48
2022/04/25 07:30:27;;;;;;;20.52;11.15;;;6.90;99.90;;;;;;5049542;28;20060;-47
2022/04/25 07:32:55;;;;;;;19.83;11.75;;;7.20;99.90;;;;;;5049219;28;20774;-47
2022/04/25 07:35:21;;;;;;;17.40;10.77;;;7.30;99.90;;;;;;5048779;28;20391;-48
2022/04/25 07:37:48;;;;;;;20.80;11.88;;;7.10;99.90;;;;;;5049117;28;20051;-47
2022/04/25 07:40:13;;;;;;;16.20;10.57;;;7.50;99.90;;;;;;5048799;28;20495;-47
2022/04/25 07:42:39;;;;;;;17.35;10.63;;;7.70;99.90;;;;;;5049240;28;20110;-48
2022/04/25 07:45:06;;;;;;;17.33;10.55;;;7.50;99.90;;;;;;5049070;28;20041;-48
2022/04/25 07:47:33;;;;;;;17.85;11.13;;;7.50;99.90;;;;;;5048789;28;20492;-46
2022/04/25 07:49:59;;;;;;;19.63;10.43;;;7.70;99.90;;;;;;5048826;28;20464;-47
2022/04/25 07:52:25;;;;;;;15.13;9.93;;;7.00;99.90;;;;;;5048659;28;20051;-46
2022/04/25 07:54:55;;;;;;;13.35;9.85;;;7.30;99.90;;;;;;5047957;28;20049;-48
2022/04/25 07:57:20;;;;;;;16.70;9.23;;;7.20;99.90;;;;;;5048542;28;20503;-47
2022/04/25 07:59:47;;;;;;;23.27;10.55;;;7.00;99.90;;;;;;5049198;28;20098;-47
2022/04/25 08:02:13;;;;;;;14.32;9.27;;;7.30;99.90;;;;;;5048669;28;20087;-50
2022/04/25 08:04:39;;;;;;;16.45;10.10;;;7.10;99.90;;;;;;5048576;28;20044;-47
2022/04/25 08:07:05;;;;;;;16.52;9.60;;;7.50;99.90;;;;;;5048504;28;20494;-48
2022/04/25 08:09:31;;;;;;;20.00;11.27;;;7.60;99.90;;;;;;5048892;28;20547;-51
2022/04/25 08:20:09;;;;;;;19.50;9.95;;;9.90;99.90;;;;;;5048501;28;20056;-48
2022/04/25 08:22:35;;;;;;;15.13;9.32;;;8.00;99.90;;;;;;5048766;28;20033;-47
2022/04/25 08:25:01;;;;;;;13.25;8.90;;;8.50;99.90;;;;;;5048021;28;20407;-49
2022/04/25 08:27:27;;;;;;;14.30;8.95;;;8.10;99.90;;;;;;5047948;28;20219;-47
2022/04/25 08:29:53;;;;;;;15.13;8.40;;;8.10;99.90;;;;;;5048161;28;20542;-46
2022/04/25 08:32:19;;;;;;;18.17;9.48;;;8.10;99.90;;;;;;5048360;28;20045;-49
2022/04/25 08:34:45;;;;;;;13.25;9.63;;;8.20;99.90;;;;;;5048570;28;20076;-48
2022/04/25 08:37:11;;;;;;;14.90;9.55;;;8.60;99.90;;;;;;5047874;28;20057;-45
2022/04/25 08:39:36;;;;;;;18.50;10.43;;;8.30;99.90;;;;;;5043922;28;20044;-43
2022/04/25 08:42:09;;;;;;;19.50;10.77;;;8.00;99.90;;;;;;5043620;28;20797;-45
2022/04/25 08:44:35;;;;;;;19.38;11.05;;;8.00;99.90;;;;;;5047493;28;20129;-44
2022/04/25 08:47:01;;;;;;;21.05;10.90;;;7.90;99.90;;;;;;5047159;28;20048;-48
2022/04/25 08:49:28;;;;;;;17.02;11.35;;;7.90;99.90;;;;;;5047123;28;20052;-46
2022/04/25 08:51:58;;;;;;;16.10;9.95;;;7.50;99.90;;;;;;5047790;28;20491;-46
2022/04/25 08:54:31;;;;;;;21.88;12.05;;;7.60;99.90;;;;;;5047626;28;20112;-45
2022/04/25 08:56:58;;;;;;;24.15;12.63;;;7.30;99.90;;;;;;5047713;28;20209;-47
2022/04/25 08:59:25;;;;;;;28.65;12.07;;;7.20;99.90;;;;;;5036731;28;20044;-50
2022/04/25 09:01:51;;;;;;;23.90;13.15;;;7.10;99.90;;;;;;5043621;28;20041;-48
2022/04/25 09:04:17;;;;;;;20.95;11.38;;;6.90;99.90;;;;;;5044120;28;20366;-54
2022/04/25 09:06:43;;;;;;;20.90;11.43;;;7.50;99.90;;;;;;5044254;28;20052;-51
2022/04/25 09:09:09;;;;;;;20.90;11.85;;;6.90;99.90;;;;;;5043299;28;20120;-50
2022/04/25 09:14:22;;;;;;;16.95;10.15;;;7.10;99.90;;;;;;5045076;28;20140;-55
2022/04/25 09:16:54;;;;;;;15.77;9.32;;;7.00;99.90;;;;;;5045018;28;20092;-53
2022/04/25 09:19:19;;;;;;;14.93;9.65;;;7.00;99.90;;;;;;5042992;28;20054;-49
2022/04/25 09:21:46;;;;;;;16.73;8.93;;;7.60;99.90;;;;;;5045109;28;20044;-48
2022/04/25 09:24:23;;;;;;;16.25;8.82;;;7.20;99.90;;;;;;5044351;28;20140;-50
2022/04/25 09:27:24;;;;;;;16.73;10.55;;;7.40;99.90;;;;;;5044711;28;20391;-50
2022/04/25 09:29:50;;;;;;;15.90;9.70;;;7.50;99.90;;;;;;5045486;28;20041;-48
2022/04/25 09:32:30;;;;;;;19.98;9.93;;;7.60;99.90;;;;;;5048652;28;20112;-48
2022/04/25 09:35:05;;;;;;;14.77;7.82;;;8.10;99.90;;;;;;5048079;28;20056;-56
2022/04/25 09:37:43;;;;;;;15.18;7.55;;;7.70;99.90;;;;;;5048691;28;20061;-55
2022/04/25 09:40:09;;;;;;;12.27;6.78;;;7.80;99.90;;;;;;5048027;28;20492;-57
2022/04/25 09:42:36;;;;;;;15.20;8.45;;;8.00;99.90;;;;;;5048127;28;20088;-53
2022/04/25 09:45:04;;;;;;;14.20;6.65;;;8.20;99.90;;;;;;5048528;28;20057;-47
2022/04/25 09:47:36;;;;;;;10.98;7.82;;;8.60;99.90;;;;;;5048762;28;20094;-51
2022/04/25 09:50:10;;;;;;;11.95;6.18;;;9.00;99.90;;;;;;5048547;28;20040;-48
2022/04/25 09:52:51;;;;;;;12.13;6.28;;;9.40;99.90;;;;;;5047420;28;20049;-51
2022/04/25 09:55:17;;;;;;;11.13;6.40;;;9.90;99.90;;;;;;5048175;28;20045;-44
2022/04/25 09:57:47;;;;;;;10.30;5.90;;;10.20;99.90;;;;;;5048603;28;20036;-46
2022/04/25 10:00:28;;;;;;;8.05;5.00;;;10.30;99.90;;;;;;5027724;28;20059;-50
2022/04/25 10:02:57;;;;;;;11.20;5.63;;;10.50;99.90;;;;;;5048390;28;20041;-48
2022/04/25 10:05:34;;;;;;;9.82;5.60;;;11.10;99.90;;;;;;5046833;28;20601;-51
2022/04/25 10:08:01;;;;;;;9.10;5.38;;;11.20;99.90;;;;;;5048279;28;20098;-47
2022/04/25 10:10:47;;;;;;;7.85;5.75;;;11.60;99.90;;;;;;5047845;28;20037;-43
2022/04/25 10:13:13;;;;;;;8.52;5.00;;;12.10;99.90;;;;;;5048175;28;20755;-45
2022/04/25 10:15:56;;;;;;;8.55;4.93;;;12.70;99.90;;;;;;5047871;28;20127;-47
2022/04/25 10:18:22;;;;;;;11.70;5.53;;;12.80;99.90;;;;;;5047171;28;20071;-47
2022/04/25 10:20:48;;;;;;;11.20;5.90;;;13.20;99.90;;;;;;5047786;28;20052;-44
2022/04/25 10:23:15;;;;;;;13.18;6.15;;;12.80;99.90;;;;;;5046004;28;20384;-47
2022/04/25 10:25:49;;;;;;;8.85;4.97;;;12.70;99.90;;;;;;5047685;28;20041;-48
2022/04/25 10:28:50;;;;;;;9.27;5.32;;;13.10;99.90;;;;;;5048333;28;20049;-48
2022/04/25 10:31:43;;;;;;;10.27;5.05;;;13.00;99.90;;;;;;5047708;28;20047;-51
2022/04/25 10:34:11;;;;;;;10.20;5.22;;;13.00;99.90;;;;;;5045971;28;20052;-53
2022/04/25 10:36:36;;;;;;;10.10;5.22;;;12.80;99.90;;;;;;5047149;28;20108;-51
2022/04/25 10:39:29;;;;;;;8.90;5.43;;;12.70;99.90;;;;;;5047199;28;20084;-49
2022/04/25 10:44:43;;;;;;;9.30;5.30;;;12.60;99.90;;;;;;5046349;28;20639;-50
2022/04/25 10:47:11;;;;;;;8.85;5.80;;;13.10;99.90;;;;;;5047604;28;20049;-44
2022/04/25 10:49:42;;;;;;;10.48;6.15;;;12.60;99.90;;;;;;5049661;28;20743;-45
2022/04/25 10:52:34;;;;;;;10.00;6.78;;;12.70;99.90;;;;;;5050653;28;20433;-46
2022/04/25 10:55:30;;;;;;;7.57;6.00;;;12.70;99.90;;;;;;5046913;28;20098;-49
2022/04/25 10:58:15;;;;;;;12.82;6.07;;;12.70;99.10;;;;;;5049326;28;20052;-47
2022/04/25 11:00:41;;;;;;;12.63;6.15;;;12.60;99.90;;;;;;5049480;28;20052;-46
2022/04/25 11:03:07;;;;;;;10.18;6.03;;;12.50;99.90;;;;;;5050087;28;20044;-48
2022/04/25 11:05:34;;;;;;;17.80;6.70;;;12.50;99.90;;;;;;5050019;28;20039;-47
2022/04/25 11:08:18;;;;;;;10.60;6.65;;;12.40;99.90;;;;;;5050263;28;20362;-46
2022/04/25 11:10:57;;;;;;;9.60;5.88;;;12.20;98.30;;;;;;5050355;28;20040;-48
2022/04/25 11:13:29;;;;;;;9.40;5.38;;;12.20;99.50;;;;;;5050232;28;20076;-49
2022/04/25 11:16:21;;;;;;;8.90;5.53;;;12.20;99.80;;;;;;5049996;28;20116;-46
2022/04/25 11:19:07;;;;;;;7.72;6.10;;;12.20;99.10;;;;;;5049747;28;20044;-46
2022/04/25 11:21:33;;;;;;;9.32;5.18;;;12.30;99.20;;;;;;5049665;28;20463;-46
2022/04/25 11:24:01;;;;;;;10.85;6.63;;;12.40;99.00;;;;;;5049741;28;20131;-47
2022/04/25 11:26:28;;;;;;;12.55;5.50;;;12.50;98.30;;;;;;5049624;28;20549;-47
2022/04/25 11:29:04;;;;;;;7.43;5.00;;;12.90;97.70;;;;;;5049561;28;20500;-47
2022/04/25 11:31:38;;;;;;;11.38;5.38;;;13.50;97.80;;;;;;5049692;28;20053;-49
2022/04/25 11:34:11;;;;;;;10.20;5.25;;;14.10;96.80;;;;;;5049545;28;20061;-46
2022/04/25 11:36:39;;;;;;;9.02;5.03;;;14.60;94.90;;;;;;5049486;28;20052;-46
2022/04/25 11:41:50;;;;;;;13.43;5.65;;;14.70;91.60;;;;;;5049218;28;20040;-47
2022/04/25 11:44:16;;;;;;;8.23;4.55;;;14.60;91.10;;;;;;5049512;28;20042;-47
2022/04/25 11:46:43;;;;;;;12.18;5.25;;;14.50;91.30;;;;;;5049252;28;20128;-47
2022/04/25 11:49:09;;;;;;;16.40;5.30;;;14.60;91.40;;;;;;5049588;28;20095;-46
2022/04/25 11:51:37;;;;;;;9.75;4.95;;;14.50;91.00;;;;;;5049165;28;20118;-46
2022/04/25 11:54:09;;;;;;;9.13;5.35;;;14.40;90.90;;;;;;5048915;28;20052;-47
2022/04/25 11:56:37;;;;;;;7.88;5.00;;;14.30;90.50;;;;;;5049294;28;20044;-47
2022/04/25 11:59:19;;;;;;;13.50;5.32;;;14.30;91.10;;;;;;5049826;28;20045;-47
2022/04/25 12:01:50;;;;;;;9.07;4.38;;;14.30;90.30;;;;;;5049338;28;20037;-47
2022/04/25 12:04:20;;;;;;;9.15;5.25;;;14.30;90.60;;;;;;5049318;28;20044;-49
2022/04/25 12:07:03;;;;;;;7.95;5.10;;;14.30;89.70;;;;;;5048782;28;20496;-46
2022/04/25 12:18:18;;;;;;;10.18;5.60;;;14.90;89.80;;;;;;5048799;28;20095;-46
2022/04/25 12:20:50;;;;;;;11.43;5.93;;;15.00;87.50;;;;;;5047563;28;20048;-46
2022/04/25 12:23:26;;;;;;;7.55;4.68;;;14.70;88.00;;;;;;5049322;28;20480;-46
2022/04/25 12:25:53;;;;;;;13.27;5.30;;;14.50;87.90;;;;;;5048943;28;20487;-45
2022/04/25 12:28:24;;;;;;;10.68;5.13;;;14.40;90.00;;;;;;5048734;28;20041;-46
2022/04/25 12:31:03;;;;;;;11.03;5.80;;;14.20;89.70;;;;;;5047155;28;20049;-47
2022/04/25 12:33:38;;;;;;;6.57;4.57;;;14.10;90.30;;;;;;5048570;28;20045;-46
2022/04/25 12:36:20;;;;;;;9.57;5.45;;;13.90;89.90;;;;;;5047385;28;20394;-46
2022/04/25 12:38:54;;;;;;;8.90;5.25;;;13.70;90.00;;;;;;5048324;28;20460;-47
2022/04/25 12:41:33;;;;;;;9.23;5.18;;;13.50;90.40;;;;;;5048894;28;20533;-47
2022/04/25 12:44:12;;;;;;;11.75;5.40;;;13.30;90.50;;;;;;5048963;28;20099;-47
2022/04/25 12:46:47;;;;;;;11.00;5.78;;;13.20;90.30;;;;;;5049018;28;20072;-46
2022/04/25 12:49:18;;;;;;;8.82;5.78;;;13.10;91.10;;;;;;5048749;28;20084;-46
2022/04/25 12:51:50;;;;;;;11.20;6.40;;;13.10;91.50;;;;;;5048794;28;20085;-46
2022/04/25 12:54:33;;;;;;;7.47;6.03;;;13.40;92.10;;;;;;5049036;28;20047;-48
2022/04/25 12:57:18;;;;;;;8.43;5.85;;;13.20;91.40;;;;;;5048872;28;20044;-46
2022/04/25 13:00:05;;;;;;;13.32;6.35;;;13.20;92.10;;;;;;5049023;28;20076;-46
2022/04/25 13:02:35;;;;;;;10.00;6.10;;;13.30;92.30;;;;;;5047840;28;20048;-46
2022/04/25 13:05:09;;;;;;;11.65;6.15;;;13.40;92.40;;;;;;5049461;28;20052;-45
2022/04/25 13:07:37;;;;;;;13.32;6.78;;;13.60;92.10;;;;;;5052699;28;20036;-46
2022/04/25 13:10:13;;;;;;;10.45;6.88;;;13.70;91.90;;;;;;5052557;28;20037;-46
2022/04/25 13:12:40;;;;;;;10.05;6.20;;;13.90;92.30;;;;;;5052463;28;20081;-48
2022/04/25 13:15:08;;;;;;;8.65;5.97;;;14.00;91.50;;;;;;5052092;28;20041;-47
2022/04/25 13:17:36;;;;;;;12.38;6.72;;;14.10;90.90;;;;;;5052553;28;20075;-49
2022/04/25 13:20:04;;;;;;;9.10;5.88;;;14.10;90.90;;;;;;5052386;28;20037;-46
2022/04/25 13:22:29;;;;;;;9.65;5.85;;;14.20;90.90;;;;;;5052530;28;20446;-48
2022/04/25 13:24:55;;;;;;;93.65;11.77;;;14.20;90.60;;;;;;5050744;28;20179;-47
2022/04/25 13:27:21;;;;;;;13.60;6.45;;;14.20;90.30;;;;;;5052060;28;20484;-48
2022/04/25 13:29:48;;;;;;;12.73;5.15;;;14.20;90.20;;;;;;5052080;28;20130;-47
2022/04/25 13:32:14;;;;;;;11.52;6.53;;;14.30;90.20;;;;;;5052254;28;20045;-47